Nearby METAR Reports

This page may be slow to load as it queries the National Weather Service for data.

KBIS - Bismarck, North Dakota, USA
Distance from station: S 10mi, 15km
Updated: Wed, 26-Sep-2018 9:52am CDT
Clear
Clear
 Wind from SW
Wind: SW 3 mph , 6 km/h
Temperature: 46°F , 8°C
Dew Point: 37°F , 3°C
Humidity: 71%
Barometer: 30.06 inHg , 1017.9 hPa
Clouds: Clear
Visibility: 10 miles , 16 km
2018/09/26 14:52 KBIS 261452Z 23003KT 10SM CLR 08/03 A3006 RMK AO2 SLP187 T00830028 58019

Notice: Undefined index: RAW-METAR in /home/bismarckweather/public_html/include-metar-display.php on line 243
KDIK - Dickinson, North Dakota, USA
Distance from station: W 95mi, 154km
Updated: Wed, 26-Sep-2018 10:20am CDT
unable to load KDIK data RC=
unable to load KDIK data RC=
 
 
KISN - Williston, North Dakota, USA
Distance from station: NNW 2mi, 2km
Updated: Wed, 26-Sep-2018 9:52am CDT
Clear
Clear
 Wind from SW
Wind: SW 12 mph , 19 km/h
Temperature: 45°F , 7°C
Wind Chill: 39°F , 4°C
Dew Point: 37°F , 3°C
Humidity: 76%
Barometer: 29.95 inHg , 1014.2 hPa
Clouds: Clear
Visibility: 10 miles , 16 km
2018/09/26 14:52 KISN 261452Z AUTO 23010KT 10SM CLR 07/03 A2995 RMK AO2 SLP157 T00670028 58025
KFAR - Fargo, North Dakota, USA
Distance from station: NNW 4mi, 7km
Updated: Wed, 26-Sep-2018 9:53am CDT
Clear
Clear
 Wind from SW
Wind: SW 8 mph , 13 km/h
Temperature: 46°F , 8°C
Wind Chill: 42°F , 6°C
Dew Point: 41°F , 5°C
Humidity: 82%
Barometer: 30.06 inHg , 1017.9 hPa
Clouds: Clear
Visibility: 10 miles , 16 km
2018/09/26 14:53 KFAR 261453Z 23007KT 10SM CLR 08/05 A3006 RMK AO2 SLP186 T00830050 58002
 
KGFK - Grand Forks, North Dakota, USA
Distance from station: NNW 76mi, 123km
Updated: Wed, 26-Sep-2018 9:53am CDT
Overcast
Overcast
 Wind from WSW
Wind: WSW 12 mph , 19 km/h
Temperature: 48°F , 9°C
Wind Chill: 43°F , 6°C
Dew Point: 39°F , 4°C
Humidity: 71%
Barometer: 30.00 inHg , 1015.9 hPa
Clouds: Overcast
Visibility: 10 miles , 16 km
Cloud details: Few Clouds 14000 ft
Overcast 20000 ft
2018/09/26 14:53 KGFK 261453Z 25010KT 10SM FEW140 OVC200 09/04 A3000 RMK AO2 SLP165 T00890044 58008
KMOT - Minot, North Dakota, USA
Distance from station: E 109mi, 175km
Updated: Wed, 26-Sep-2018 9:54am CDT
Overcast
Overcast
 Wind from SW
Wind: SW 14 mph , 22 km/h
Temperature: 48°F , 9°C
Wind Chill: 42°F , 6°C
Dew Point: 37°F , 3°C
Humidity: 66%
Barometer: 29.93 inHg , 1013.5 hPa
Clouds: Overcast
Visibility: 10 miles , 16 km
Cloud details: Overcast 9000 ft
2018/09/26 14:54 KMOT 261454Z 22012KT 10SM OVC090 09/03 A2993 RMK AO2 SLP146 T00890033 56022